Namao — CZ9742 — position and weather

sailwx.info

Track history (hours):
 
Tides and Currents Weather Stations Pressure Air Temp Water Temp Dewpoint Dewpoint Depression Visibility Wind Speed Wind Dir Waves Ship Positions

Oceanographic research ship Namao (Canada)

Last reported at 2018-Feb-25 23:00 UTC. Time now 2018-Feb-25 23:45 UTC.
Position N 50°36' W 096°54'.

Wind from 270 at 5 knots

Barometer 1003.2 mb
Air temperature -3.5 ° C
Dewpoint -9.1 ° C

Date/timePositionNaut miles runAvg speedWind from/ knotsBaromVisibWave heightAir tempDewpointWater temp
2018-Feb-25 23:00N 50°36' W 096°54'0 0.0 270 / 51003.2 -3.5-9.1
2018-Feb-25 22:00N 50°36' W 096°54'0 0.0 280 / 91002.4 -2.9-9.7
2018-Feb-25 21:00N 50°36' W 096°54'0 0.0 270 / 71001.3 -1.7-9.4
2018-Feb-25 20:00N 50°36' W 096°54'0 0.0 300 / 71000.7 -2.2-9.0
2018-Feb-25 19:00N 50°36' W 096°54'0 0.0 300 / 91000.4 -3.4-8.5
2018-Feb-25 18:00N 50°36' W 096°54'0 0.0 270 / 81000.4 -5.2-7.8
2018-Feb-25 17:00N 50°36' W 096°54'0 0.0 270 / 41000.1 -6.3-8.6
2018-Feb-25 16:00N 50°36' W 096°54'0 0.0 270 / 7999.7 -8.7-9.2
2018-Feb-25 15:00N 50°36' W 096°54'0 0.0 250 / 7999.4 -9.2-9.4
2018-Feb-25 14:00N 50°36' W 096°54'0 0.0 240 / 4999.3 -9.4-9.5
2018-Feb-25 13:00N 50°36' W 096°54'0 0.0 180 / 2998.8 -9.2-9.3
2018-Feb-25 12:00N 50°36' W 096°54'0 0.0 220 / 2999.1 -8.7-8.9
2018-Feb-25 11:00N 50°36' W 096°54'0 0.0 190 / 4999.3 -8.3-8.5
2018-Feb-25 10:00N 50°36' W 096°54'0 0.0 180 / 3999.8 -8.4-8.5
2018-Feb-25 09:00N 50°36' W 096°54'0 0.0 180 / 41000.6 -8.9-9.0
2018-Feb-25 08:00N 50°36' W 096°54'0 0.0 170 / 41001.4 -8.5-8.7
2018-Feb-25 07:00N 50°36' W 096°54'0 0.0 170 / 61002.3 -8.2-8.3
2018-Feb-25 06:00N 50°36' W 096°54'0 0.0 160 / 81003.1 -8.6-8.7
2018-Feb-25 05:00N 50°36' W 096°54'0 0.0 160 / 101004.0 -8.6-9.4
2018-Feb-25 04:00N 50°36' W 096°54'0 0.0 150 / 101004.9 -8.2-10.5
2018-Feb-25 03:00N 50°36' W 096°54'0 0.0 170 / 91005.7 -7.2-10.8
2018-Feb-25 02:00N 50°36' W 096°54'0 0.0 170 / 101006.2 -7.0-9.8
2018-Feb-25 01:00N 50°36' W 096°54'0 0.0 180 / 81007.0 -6.4-9.4
2018-Feb-25 00:00N 50°36' W 096°54'0 0.0 170 / 121007.0 -5.7-9.2
2018-Feb-24 23:00N 50°36' W 096°54'0 0.0 170 / 151007.8 -5.4-9.3
2018-Feb-24 22:00N 50°36' W 096°54'0 0.0 190 / 161008.4 -4.0-9.0
2018-Feb-24 21:00N 50°36' W 096°54'0 0.0 190 / 171008.9 -4.2-9.0
2018-Feb-24 20:00N 50°36' W 096°54'0 0.0 190 / 171009.7 -4.7-10.1
2018-Feb-24 19:00N 50°36' W 096°54'0 0.0 190 / 181010.6 -5.1-10.5
2018-Feb-24 18:00N 50°36' W 096°54'0 0.0 190 / 151012.0 -7.4-12.4
2018-Feb-24 17:00N 50°36' W 096°54'0 0.0 190 / 151013.0 -9.8-14.5
2018-Feb-24 16:00N 50°36' W 096°54'0 0.0 190 / 161013.6 -11.9-16.7
2018-Feb-24 15:00N 50°36' W 096°54'0 0.0 190 / 141013.9 -13.2-17.9
2018-Feb-24 14:00N 50°36' W 096°54'0 0.0 190 / 151014.6 -14.1-17.8
2018-Feb-24 13:00N 50°36' W 096°54'0 0.0 180 / 171015.1 -14.7-17.3
2018-Feb-24 12:00N 50°36' W 096°54'0 0.0 190 / 121015.8 -14.7-16.9
2018-Feb-24 11:00N 50°36' W 096°54'0 0.0 170 / 121016.6 -17.0-18.8
2018-Feb-24 10:00N 50°36' W 096°54'0 0.0 160 / 121018.0 -17.6-19.3
2018-Feb-24 09:00N 50°36' W 096°54'0 0.0 170 / 91019.3 -16.1-17.9
2018-Feb-24 08:00N 50°36' W 096°54'0 0.0 190 / 91020.2 -15.8-17.5
2018-Feb-24 07:00N 50°36' W 096°54'0 0.0 190 / 121020.6 -15.3-17.0
2018-Feb-24 06:00N 50°36' W 096°54'0 0.0 190 / 81021.3 -15.9-17.2
2018-Feb-24 05:00N 50°36' W 096°54'0 0.0 200 / 81021.4 -14.4-15.9
2018-Feb-24 04:00N 50°36' W 096°54'0 0.0 190 / 81021.9 -14.1-15.9
2018-Feb-24 03:00N 50°36' W 096°54'0 0.0 190 / 91022.1 -12.8-16.5
2018-Feb-24 02:00N 50°36' W 096°54'0 0.0 210 / 71022.1 -11.6-16.7
2018-Feb-24 01:00N 50°36' W 096°54'0 0.0 210 / 51022.1 -10.2-15.8
2018-Feb-24 00:00N 50°36' W 096°54'0 0.0 210 / 71022.2 -9.2-15.2
2018-Feb-23 23:00N 50°36' W 096°54'0 0.0 180 / 61022.2 -8.7-14.6
2018-Feb-23 22:00N 50°36' W 096°54'0 0.0 160 / 91022.5 -11.8-14.9
2018-Feb-23 21:00N 50°36' W 096°54'0 0.0 150 / 61022.9 -11.8-15.3
2018-Feb-23 20:00N 50°36' W 096°54'0 0.0 120 / 41023.3 -10.8-15.6
2018-Feb-23 19:00N 50°36' W 096°54'0 0.0 050 / 31023.5 -12.1-16.8
2018-Feb-23 18:00N 50°36' W 096°54'0 0.0 070 / 31023.6 -10.4-16.2
2018-Feb-23 17:00N 50°36' W 096°54'0 0.0 100 / 21023.8 -10.4-16.0
2018-Feb-23 16:00N 50°36' W 096°54'0 0.0 320 / 31024.0 -14.2-17.7
2018-Feb-23 15:00N 50°36' W 096°54'0 0.0 300 / 21024.2 -16.5-18.9
2018-Feb-23 14:00N 50°36' W 096°54'0 0.0 300 / 31024.1 -17.5-19.7
2018-Feb-23 13:00N 50°36' W 096°54'0 0.0 320 / 41023.9 -17.1-19.1
2018-Feb-23 12:00N 50°36' W 096°54'0 0.0 310 / 41024.0 -17.4-19.3
2018-Feb-23 11:00N 50°36' W 096°54'0 0.0 290 / 31024.1 -18.4-20.2
2018-Feb-23 10:00N 50°36' W 096°54'0 0.0 210 / 21024.7 -19.1-21.0
2018-Feb-23 09:00N 50°36' W 096°54'0 0.0 190 / 41025.4 -19.1-20.8
2018-Feb-23 08:00N 50°36' W 096°54'0 0.0 260 / 51025.8 -16.0-17.5
2018-Feb-23 07:00N 50°36' W 096°54'0 0.0 230 / 41026.3 -16.2-17.6
2018-Feb-23 06:00N 50°36' W 096°54'0 0.0 170 / 61026.4 -16.0-17.3
2018-Feb-23 05:00N 50°36' W 096°54'0 0.0 170 / 31026.6 -16.0-17.3
2018-Feb-23 04:00N 50°36' W 096°54'0 0.0 190 / 51026.7 -15.3-16.6
2018-Feb-23 03:00N 50°36' W 096°54'0 0.0 200 / 61027.1 -14.2-15.8
2018-Feb-23 02:00N 50°36' W 096°54'0 0.0 190 / 101026.8 -13.2-15.1
2018-Feb-23 01:00N 50°36' W 096°54'0 0.0 190 / 91027.1 -12.4-14.8
2018-Feb-23 00:00N 50°36' W 096°54'0 0.0 190 / 111027.1 -11.6-15.1
2018-Feb-22 23:00N 50°36' W 096°54'0 0.0 190 / 121027.2 -10.5-15.2
2018-Feb-22 22:00N 50°36' W 096°54'0 0.0 190 / 151027.3 -10.5-15.3
2018-Feb-22 21:00N 50°36' W 096°54'0 0.0 190 / 131027.9 -10.4-15.6
2018-Feb-22 20:00N 50°36' W 096°54'0 0.0 190 / 161028.6 -11.1-16.2
2018-Feb-22 19:00N 50°36' W 096°54'0 0.0 190 / 161029.2 -11.7-17.1
2018-Feb-22 18:00N 50°36' W 096°54'0 0.0 190 / 171030.2 -12.7-18.0
2018-Feb-22 17:00N 50°36' W 096°54'0 0.0 200 / 141030.6 -13.8-19.0
2018-Feb-22 16:00N 50°36' W 096°54'0 0.0 200 / 121031.2 -14.9-19.6
2018-Feb-22 15:00N 50°36' W 096°54'0 0.0 190 / 71032.0 -17.6-20.7
2018-Feb-22 14:00N 50°36' W 096°54'0 0.0 190 / 91031.9 -19.0-21.8
2018-Feb-22 13:00N 50°36' W 096°54'0 0.0 190 / 81032.2 -21.7-24.2
2018-Feb-22 12:00N 50°36' W 096°54'0 0.0 170 / 91032.2 -21.7-24.3
2018-Feb-22 11:00N 50°36' W 096°54'0 0.0 170 / 71032.8 -20.2-22.9
2018-Feb-22 10:00N 50°36' W 096°54'0 0.0 180 / 51033.8 -18.9-22.0
2018-Feb-22 09:00N 50°36' W 096°54'0 0.0 190 / 91034.3 -19.5-22.5
2018-Feb-22 08:00N 50°36' W 096°54'0 0.0 180 / 51034.7 -21.8-24.7
2018-Feb-22 07:00N 50°36' W 096°54'0 0.0 210 / 71034.9 -20.8-23.7
2018-Feb-22 06:00N 50°36' W 096°54'0 0.0 210 / 61034.8 -20.2-23.7
2018-Feb-22 05:00N 50°36' W 096°54'0 0.0 180 / 61034.8 -20.2-23.9
2018-Feb-22 04:00N 50°36' W 096°54'0 0.0 190 / 51034.4 -18.8-23.3
2018-Feb-22 03:00N 50°36' W 096°54'0 0.0 200 / 51033.9 -17.4-21.8
2018-Feb-22 02:00N 50°36' W 096°54'0 0.0 220 / 51033.8 -16.8-20.3
2018-Feb-22 01:00N 50°36' W 096°54'0 0.0 190 / 71033.5 -16.2-20.5
2018-Feb-22 00:00N 50°36' W 096°54'0 0.0 190 / 81033.3 -15.0-20.5
2018-Feb-21 23:00N 50°36' W 096°54'0 0.0 240 / 61033.5 -12.6-21.8
2018-Feb-21 22:00N 50°36' W 096°54'0 0.0 220 / 101033.0 -13.0-23.5
2018-Feb-21 21:00N 50°36' W 096°54'0 0.0 240 / 91032.7 -12.7-23.1
2018-Feb-21 20:00N 50°36' W 096°54'0 0.0 230 / 101031.8 -13.3-24.2
2018-Feb-21 19:00N 50°36' W 096°54'0 0.0 220 / 101031.2 -13.9-24.3
2018-Feb-21 18:00N 50°36' W 096°54'0 0.0 260 / 71030.9 -14.3-23.6
2018-Feb-21 17:00N 50°36' W 096°54'0 0.0 260 / 101030.5 -14.9-23.2
2018-Feb-21 16:00N 50°36' W 096°54'0 0.0 240 / 101030.3 -16.2-22.1
2018-Feb-21 15:00N 50°36' W 096°54'0 0.0 220 / 91029.1 -17.1-21.4
2018-Feb-21 14:00N 50°36' W 096°54'0 0.0 230 / 51028.3 -17.4-20.2
2018-Feb-21 13:00N 50°36' W 096°54'0 0.0 240 / 51027.3 -17.0-19.6
2018-Feb-21 12:00N 50°36' W 096°54'0 0.0 260 / 61026.1 -17.2-19.8
2018-Feb-21 11:00N 50°36' W 096°54'0 0.0 260 / 91024.9 -17.0-20.1
2018-Feb-21 10:00N 50°36' W 096°54'0 0.0 250 / 81023.8 -16.3-19.9
2018-Feb-21 09:00N 50°36' W 096°54'0 0.0 230 / 51023.5 -17.5-20.8
2018-Feb-21 08:00N 50°36' W 096°54'0 0.0 230 / 71022.7 -16.5-20.0
2018-Feb-21 07:00N 50°36' W 096°54'0 0.0 230 / 61022.2 -15.8-19.6
2018-Feb-21 06:00N 50°36' W 096°54'0 0.0 240 / 71021.7 -15.4-19.5
2018-Feb-21 05:00N 50°36' W 096°54'0 0.0 220 / 61021.5 -15.8-19.8
2018-Feb-21 04:00N 50°36' W 096°54'0 0.0 200 / 61021.2 -15.8-19.6
2018-Feb-21 03:00N 50°36' W 096°54'0 0.0 190 / 71020.7 -15.8-19.5
2018-Feb-21 02:00N 50°36' W 096°54'0 0.0 200 / 51020.6 -14.6-19.7
2018-Feb-21 01:00N 50°36' W 096°54'0 0.0 190 / 61020.4 -13.9-20.1
2018-Feb-21 00:00N 50°36' W 096°54'0 0.0 220 / 51020.3 -13.0-19.8
2018-Feb-20 23:00N 50°36' W 096°54'0 0.0 220 / 61019.7 -11.3-19.0
2018-Feb-20 22:00N 50°36' W 096°54'0 0.0 120 / 81019.7 -12.9-16.0
2018-Feb-20 21:00N 50°36' W 096°54'0 0.0 130 / 71019.5 -13.1-15.9
2018-Feb-20 20:00N 50°36' W 096°54'0 0.0 120 / 51019.9 -12.9-16.1
2018-Feb-20 19:00N 50°36' W 096°54'0 0.0 230 / 31020.5 -12.6-17.5
2018-Feb-20 18:00N 50°36' W 096°54'0 0.0 250 / 31021.3 -13.8-17.8
2018-Feb-20 17:00N 50°36' W 096°54'0 0.0 240 / 31021.8 -15.4-18.4
2018-Feb-20 16:00N 50°36' W 096°54'0 0.0 230 / 21022.9 -15.9-18.3
2018-Feb-20 15:00N 50°36' W 096°54'0 0.0 200 / 21023.4 -16.8-18.9
2018-Feb-20 14:00N 50°36' W 096°54'0 0.0 210 / 21024.1 -17.3-19.5
2018-Feb-20 13:00N 50°36' W 096°54'0 0.0 280 / 21023.8 -17.3-19.7
2018-Feb-20 12:00N 50°36' W 096°54'0 0.0 290 / 11024.5 -17.1-20.4
2018-Feb-20 11:00N 50°36' W 096°54'0 0.0 1024.0 -16.4-20.4
2018-Feb-20 09:00N 50°36' W 096°54'0 0.0 110 / 21026.3 -16.3-21.5
2018-Feb-20 08:00N 50°36' W 096°54'0 0.0 110 / 31026.5 -16.6-21.9
2018-Feb-20 07:00N 50°36' W 096°54'0 0.0 1027.2 -17.8-23.7
2018-Feb-20 06:00N 50°36' W 096°54'0 0.0 180 / 11027.5 -18.1-24.8
2018-Feb-20 05:00N 50°36' W 096°54'0 0.0 210 / 21028.2 -18.2-24.1
2018-Feb-20 03:00N 50°36' W 096°54'0 0.0 250 / 41028.6 -18.1-25.9
2018-Feb-20 02:00N 50°36' W 096°54'0 0.0 210 / 21028.7 -18.9-24.7
2018-Feb-20 01:00N 50°36' W 096°54'0 0.0 230 / 21028.9 -18.7-24.9
2018-Feb-19 23:00N 50°36' W 096°54'0 0.0 040 / 11029.2 -18.6-23.7
2018-Feb-19 22:00N 50°36' W 096°54'0 0.0 080 / 11029.1 -17.6-23.6
2018-Feb-19 21:00N 50°36' W 096°54'0 0.0 010 / 61029.1 -18.3-23.9
2018-Feb-19 20:00N 50°36' W 096°54'0 0.0 020 / 11030.0 -17.5-24.4
2018-Feb-19 19:00N 50°36' W 096°54'0 0.0 050 / 41030.9 -19.2-25.1
2018-Feb-19 18:00N 50°36' W 096°54'0 0.0 040 / 41031.3 -20.4-26.0
2018-Feb-19 17:00N 50°36' W 096°54'0 0.0 040 / 41031.6 -21.5-27.4
2018-Feb-19 16:00N 50°36' W 096°54'0 0.0 360 / 31031.6 -22.4-28.5
2018-Feb-19 15:00N 50°36' W 096°54'0 0.0 360 / 21031.3 -24.6-29.6
2018-Feb-19 14:00N 50°36' W 096°54'0 0.0 330 / 51031.1 -25.9
2018-Feb-19 13:00N 50°36' W 096°54'0 0.0 350 / 41030.6 -25.9-29.8
2018-Feb-19 12:00N 50°36' W 096°54'0 0.0 320 / 41030.1 -25.7-29.8
2018-Feb-19 11:00N 50°36' W 096°54'0 0.0 330 / 51029.1 -25.2-29.0
2018-Feb-19 10:00N 50°36' W 096°54'0 0.0 320 / 61029.3 -24.0-28.1
2018-Feb-19 09:00N 50°36' W 096°54'0 0.0 320 / 71028.3 -23.2-27.5
2018-Feb-19 08:00N 50°36' W 096°54'0 0.0 320 / 51027.6 -22.4-27.3
2018-Feb-19 07:00N 50°36' W 096°54'0 0.0 320 / 71026.8 -21.7-26.7
2018-Feb-19 06:00N 50°36' W 096°54'0 0.0 340 / 61026.1 -20.3-25.7
2018-Feb-19 05:00N 50°36' W 096°54'0 0.0 330 / 81025.2 -20.1-25.8
2018-Feb-19 04:00N 50°36' W 096°54'0 0.0 340 / 71024.4 -19.2-24.8
2018-Feb-19 03:00N 50°36' W 096°54'0 0.0 340 / 61023.6 -16.9-23.5
2018-Feb-19 02:00N 50°36' W 096°54'0 0.0 340 / 61022.7 -16.5-22.8
2018-Feb-19 01:00N 50°36' W 096°54'0 0.0 340 / 51022.1 -15.8-22.5
2018-Feb-19 00:00N 50°36' W 096°54'0 0.0 360 / 41021.3 -15.2-22.0
2018-Feb-18 23:00N 50°36' W 096°54'0 0.0 360 / 71020.2 -14.1-19.9
2018-Feb-18 22:00N 50°36' W 096°54'0 0.0 020 / 71018.9 -13.8-18.1
2018-Feb-18 21:00N 50°36' W 096°54'0 0.0 010 / 81018.8 -13.8-18.1
2018-Feb-18 20:00N 50°36' W 096°54'0 0.0 010 / 91018.9 -14.6-18.3
2018-Feb-18 19:00N 50°36' W 096°54'0 0.0 010 / 81019.3 -15.1-18.9
2018-Feb-18 18:00N 50°36' W 096°54'0 0.0 360 / 71019.7 -17.0-20.4
2018-Feb-18 17:00N 50°36' W 096°54'0 0.0 360 / 51019.7 -17.9-21.1
2018-Feb-18 16:00N 50°36' W 096°54'0 0.0 010 / 51019.4 -18.0-21.0
2018-Feb-18 15:00N 50°36' W 096°54'0 0.0 010 / 51018.7 -17.9-20.7
2018-Feb-18 14:00N 50°36' W 096°54'0 0.0 030 / 41017.6 -18.4-21.0
2018-Feb-18 13:00N 50°36' W 096°54'0 0.0 360 / 61017.7 -18.9-21.4
2018-Feb-18 12:00N 50°36' W 096°54'0 0.0 330 / 11017.6 -18.6-20.9
2018-Feb-18 11:00N 50°36' W 096°54'0 0.0 350 / 31017.5 -18.7-21.1
2018-Feb-18 10:00N 50°36' W 096°54'0 0.0 260 / 31017.2 -17.7-20.6
2018-Feb-18 09:00N 50°36' W 096°54'0 0.0 260 / 61016.7 -16.9-20.6
2018-Feb-18 08:00N 50°36' W 096°54'0 0.0 250 / 61016.8 -16.8-21.0
2018-Feb-18 07:00N 50°36' W 096°54'0 0.0 250 / 51016.4 -16.0-21.2
2018-Feb-18 06:00N 50°36' W 096°54'0 0.0 210 / 61016.2 -15.8-21.3
2018-Feb-18 05:00N 50°36' W 096°54'0 0.0 230 / 51016.0 -15.5-21.8
2018-Feb-18 04:00N 50°36' W 096°54'0 0.0 220 / 61015.6 -15.0-22.0
2018-Feb-18 03:00N 50°36' W 096°54'0 0.0 210 / 71015.6 -15.2-22.3
2018-Feb-18 02:00N 50°36' W 096°54'0 0.0 200 / 61015.5 -15.4-23.0
2018-Feb-18 01:00N 50°36' W 096°54'0 0.0 190 / 41015.1 -14.8-23.1
2018-Feb-18 00:00N 50°36' W 096°54'0 0.0 260 / 11014.7 -13.4-22.7
2018-Feb-17 23:00N 50°36' W 096°54'0 0.0 300 / 61014.3 -12.1-22.4
2018-Feb-17 22:00N 50°36' W 096°54'0 0.0 290 / 101013.8 -11.9-22.1
2018-Feb-17 21:00N 50°36' W 096°54'0 0.0 300 / 111012.7 -13.1-20.9
2018-Feb-17 20:00N 50°36' W 096°54'0 0.0 310 / 121011.8 -12.0-20.3
2018-Feb-17 19:00N 50°36' W 096°54'0 0.0 310 / 121011.6 -10.6-19.7
2018-Feb-17 18:00N 50°36' W 096°54'0 0.0 290 / 131011.3 -10.2-19.7
2018-Feb-17 17:00N 50°36' W 096°54'0 0.0 250 / 71011.5 -12.0-19.2
2018-Feb-17 16:00N 50°36' W 096°54'0 0.0 250 / 61011.7 -14.0-19.0
2018-Feb-17 15:00N 50°36' W 096°54'0 0.0 260 / 51011.4 -15.9-19.6
2018-Feb-17 14:00N 50°36' W 096°54'0 0.0 270 / 51010.7 -16.5-19.7
2018-Feb-17 13:00N 50°36' W 096°54'0 0.0 280 / 61010.0 -16.7-18.6
2018-Feb-17 12:00N 50°36' W 096°54'0 0.0 280 / 61009.4 -16.7-18.8
2018-Feb-17 11:00N 50°36' W 096°54'0 0.0 250 / 61008.8 -16.2-19.0
2018-Feb-17 10:00N 50°36' W 096°54'0 0.0 260 / 71008.0 -15.7-18.1
2018-Feb-17 09:00N 50°36' W 096°54'0 0.0 280 / 51007.6 -14.8-17.2
2018-Feb-17 08:00N 50°36' W 096°54'0 0.0 280 / 61007.1 -14.4-16.9
2018-Feb-17 07:00N 50°36' W 096°54'0 0.0 290 / 71006.4 -13.4-16.5
2018-Feb-17 06:00N 50°36' W 096°54'0 0.0 280 / 61005.9 -12.5-16.1
2018-Feb-17 05:00N 50°36' W 096°54'0 0.0 270 / 61005.8 -11.1-14.9
2018-Feb-17 04:00N 50°36' W 096°54'0 0.0 210 / 41006.4 -11.8-13.4
2018-Feb-17 03:00N 50°36' W 096°54'0 0.0 200 / 51006.4 -11.0-13.0
2018-Feb-17 02:00N 50°36' W 096°54'0 0.0 170 / 31006.9 -11.5-13.2
2018-Feb-17 01:00N 50°36' W 096°54'0 0.0 170 / 71007.9 -11.1-13.4
2018-Feb-17 00:00N 50°36' W 096°54'0 0.0 170 / 101008.9 -11.0-13.5
2018-Feb-16 23:00N 50°36' W 096°54'0 0.0 160 / 71009.6 -12.3-15.5
2018-Feb-16 22:00N 50°36' W 096°54'0 0.0 190 / 121010.7 -10.6-15.5
2018-Feb-16 21:00N 50°36' W 096°54'0 0.0 190 / 141011.7 -12.1-16.7
2018-Feb-16 20:00N 50°36' W 096°54'0 0.0 190 / 131013.0 -13.1-18.0
2018-Feb-16 19:00N 50°36' W 096°54'0 0.0 190 / 101013.9 -13.5-19.5
2018-Feb-16 18:00N 50°36' W 096°54'0 0.0 180 / 81015.5 -14.1-20.1
2018-Feb-16 17:00N 50°36' W 096°54'0 0.0 220 / 71016.1 -14.7-20.7
2018-Feb-16 16:00N 50°36' W 096°54'0 0.0 220 / 61016.8 -16.3-21.1
2018-Feb-16 15:00N 50°36' W 096°54'0 0.0 230 / 91017.5 -17.6-21.8
2018-Feb-16 14:00N 50°36' W 096°54'0 0.0 230 / 91017.6 -18.6-22.3
2018-Feb-16 13:00N 50°36' W 096°54'0 0.0 230 / 81017.8 -18.8-22.3
2018-Feb-16 12:00N 50°36' W 096°54'0 0.0 230 / 81018.3 -18.3-21.9
2018-Feb-16 11:00N 50°36' W 096°54'0 0.0 230 / 81018.6 -18.2-22.2
2018-Feb-16 10:00N 50°36' W 096°54'0 0.0 230 / 101019.0 -17.9-22.5
2018-Feb-16 09:00N 50°36' W 096°54'0 0.0 230 / 111019.6 -18.5-23.1
2018-Feb-16 08:00N 50°36' W 096°54'0 0.0 230 / 111020.1 -19.2-24.2
2018-Feb-16 07:00N 50°36' W 096°54'0 0.0 220 / 111021.1 -20.0-25.1
2018-Feb-16 06:00N 50°36' W 096°54'0 0.0 210 / 91022.1 -20.5-25.7
2018-Feb-16 05:00N 50°36' W 096°54'0 0.0 220 / 91023.1 -21.3-26.4
2018-Feb-16 04:00N 50°36' W 096°54'0 0.0 220 / 91024.0 -22.3-27.4
2018-Feb-16 03:00N 50°36' W 096°54'0 0.0 220 / 71024.6 -23.4-28.6
2018-Feb-16 02:00N 50°36' W 096°54'0 0.0 210 / 61025.0 -23.4-29.5
2018-Feb-16 01:00N 50°36' W 096°54'0 0.0 210 / 61025.2 -22.4-29.5
2018-Feb-16 00:00N 50°36' W 096°54'0 0.0 230 / 61025.6 -21.3-29.2
2018-Feb-15 23:00N 50°36' W 096°54'   240 / 61025.7 -19.4-29.0
Track history (hours):
 
Tides and Currents Weather Stations Pressure Air Temp Water Temp Dewpoint Dewpoint Depression Visibility Wind Speed Wind Dir Waves Ship Positions

Oceanographic research ship Namao (Canada)

Last reported at 2018-Feb-25 23:00 UTC. Time now 2018-Feb-25 23:45 UTC.
Position N 50°36' W 096°54'.

Wind from 270 at 5 knots

Barometer 1003.2 mb
Air temperature -3.5 ° C
Dewpoint -9.1 ° C

Date/timePositionNaut miles runAvg speedWind from/ knotsBaromVisibWave heightAir tempDewpointWater temp
2018-Feb-25 23:00N 50°36' W 096°54'0 0.0 270 / 51003.2 -3.5-9.1
2018-Feb-25 22:00N 50°36' W 096°54'0 0.0 280 / 91002.4 -2.9-9.7
2018-Feb-25 21:00N 50°36' W 096°54'0 0.0 270 / 71001.3 -1.7-9.4
2018-Feb-25 20:00N 50°36' W 096°54'0 0.0 300 / 71000.7 -2.2-9.0
2018-Feb-25 19:00N 50°36' W 096°54'0 0.0 300 / 91000.4 -3.4-8.5
2018-Feb-25 18:00N 50°36' W 096°54'0 0.0 270 / 81000.4 -5.2-7.8
2018-Feb-25 17:00N 50°36' W 096°54'0 0.0 270 / 41000.1 -6.3-8.6
2018-Feb-25 16:00N 50°36' W 096°54'0 0.0 270 / 7999.7 -8.7-9.2
2018-Feb-25 15:00N 50°36' W 096°54'0 0.0 250 / 7999.4 -9.2-9.4
2018-Feb-25 14:00N 50°36' W 096°54'0 0.0 240 / 4999.3 -9.4-9.5
2018-Feb-25 13:00N 50°36' W 096°54'0 0.0 180 / 2998.8 -9.2-9.3
2018-Feb-25 12:00N 50°36' W 096°54'0 0.0 220 / 2999.1 -8.7-8.9
2018-Feb-25 11:00N 50°36' W 096°54'0 0.0 190 / 4999.3 -8.3-8.5
2018-Feb-25 10:00N 50°36' W 096°54'0 0.0 180 / 3999.8 -8.4-8.5
2018-Feb-25 09:00N 50°36' W 096°54'0 0.0 180 / 41000.6 -8.9-9.0
2018-Feb-25 08:00N 50°36' W 096°54'0 0.0 170 / 41001.4 -8.5-8.7
2018-Feb-25 07:00N 50°36' W 096°54'0 0.0 170 / 61002.3 -8.2-8.3
2018-Feb-25 06:00N 50°36' W 096°54'0 0.0 160 / 81003.1 -8.6-8.7
2018-Feb-25 05:00N 50°36' W 096°54'0 0.0 160 / 101004.0 -8.6-9.4
2018-Feb-25 04:00N 50°36' W 096°54'0 0.0 150 / 101004.9 -8.2-10.5
2018-Feb-25 03:00N 50°36' W 096°54'0 0.0 170 / 91005.7 -7.2-10.8
2018-Feb-25 02:00N 50°36' W 096°54'0 0.0 170 / 101006.2 -7.0-9.8
2018-Feb-25 01:00N 50°36' W 096°54'0 0.0 180 / 81007.0 -6.4-9.4
2018-Feb-25 00:00N 50°36' W 096°54'0 0.0 170 / 121007.0 -5.7-9.2
2018-Feb-24 23:00N 50°36' W 096°54'0 0.0 170 / 151007.8 -5.4-9.3
2018-Feb-24 22:00N 50°36' W 096°54'0 0.0 190 / 161008.4 -4.0-9.0
2018-Feb-24 21:00N 50°36' W 096°54'0 0.0 190 / 171008.9 -4.2-9.0
2018-Feb-24 20:00N 50°36' W 096°54'0 0.0 190 / 171009.7 -4.7-10.1
2018-Feb-24 19:00N 50°36' W 096°54'0 0.0 190 / 181010.6 -5.1-10.5
2018-Feb-24 18:00N 50°36' W 096°54'0 0.0 190 / 151012.0 -7.4-12.4
2018-Feb-24 17:00N 50°36' W 096°54'0 0.0 190 / 151013.0 -9.8-14.5
2018-Feb-24 16:00N 50°36' W 096°54'0 0.0 190 / 161013.6 -11.9-16.7
2018-Feb-24 15:00N 50°36' W 096°54'0 0.0 190 / 141013.9 -13.2-17.9
2018-Feb-24 14:00N 50°36' W 096°54'0 0.0 190 / 151014.6 -14.1-17.8
2018-Feb-24 13:00N 50°36' W 096°54'0 0.0 180 / 171015.1 -14.7-17.3
2018-Feb-24 12:00N 50°36' W 096°54'0 0.0 190 / 121015.8 -14.7-16.9
2018-Feb-24 11:00N 50°36' W 096°54'0 0.0 170 / 121016.6 -17.0-18.8
2018-Feb-24 10:00N 50°36' W 096°54'0 0.0 160 / 121018.0 -17.6-19.3
2018-Feb-24 09:00N 50°36' W 096°54'0 0.0 170 / 91019.3 -16.1-17.9
2018-Feb-24 08:00N 50°36' W 096°54'0 0.0 190 / 91020.2 -15.8-17.5
2018-Feb-24 07:00N 50°36' W 096°54'0 0.0 190 / 121020.6 -15.3-17.0
2018-Feb-24 06:00N 50°36' W 096°54'0 0.0 190 / 81021.3 -15.9-17.2
2018-Feb-24 05:00N 50°36' W 096°54'0 0.0 200 / 81021.4 -14.4-15.9
2018-Feb-24 04:00N 50°36' W 096°54'0 0.0 190 / 81021.9 -14.1-15.9
2018-Feb-24 03:00N 50°36' W 096°54'0 0.0 190 / 91022.1 -12.8-16.5
2018-Feb-24 02:00N 50°36' W 096°54'0 0.0 210 / 71022.1 -11.6-16.7
2018-Feb-24 01:00N 50°36' W 096°54'0 0.0 210 / 51022.1 -10.2-15.8
2018-Feb-24 00:00N 50°36' W 096°54'0 0.0 210 / 71022.2 -9.2-15.2
2018-Feb-23 23:00N 50°36' W 096°54'0 0.0 180 / 61022.2 -8.7-14.6
2018-Feb-23 22:00N 50°36' W 096°54'0 0.0 160 / 91022.5 -11.8-14.9
2018-Feb-23 21:00N 50°36' W 096°54'0 0.0 150 / 61022.9 -11.8-15.3
2018-Feb-23 20:00N 50°36' W 096°54'0 0.0 120 / 41023.3 -10.8-15.6
2018-Feb-23 19:00N 50°36' W 096°54'0 0.0 050 / 31023.5 -12.1-16.8
2018-Feb-23 18:00N 50°36' W 096°54'0 0.0 070 / 31023.6 -10.4-16.2
2018-Feb-23 17:00N 50°36' W 096°54'0 0.0 100 / 21023.8 -10.4-16.0
2018-Feb-23 16:00N 50°36' W 096°54'0 0.0 320 / 31024.0 -14.2-17.7
2018-Feb-23 15:00N 50°36' W 096°54'0 0.0 300 / 21024.2 -16.5-18.9
2018-Feb-23 14:00N 50°36' W 096°54'0 0.0 300 / 31024.1 -17.5-19.7
2018-Feb-23 13:00N 50°36' W 096°54'0 0.0 320 / 41023.9 -17.1-19.1
2018-Feb-23 12:00N 50°36' W 096°54'0 0.0 310 / 41024.0 -17.4-19.3
2018-Feb-23 11:00N 50°36' W 096°54'0 0.0 290 / 31024.1 -18.4-20.2
2018-Feb-23 10:00N 50°36' W 096°54'0 0.0 210 / 21024.7 -19.1-21.0
2018-Feb-23 09:00N 50°36' W 096°54'0 0.0 190 / 41025.4 -19.1-20.8
2018-Feb-23 08:00N 50°36' W 096°54'0 0.0 260 / 51025.8 -16.0-17.5
2018-Feb-23 07:00N 50°36' W 096°54'0 0.0 230 / 41026.3 -16.2-17.6
2018-Feb-23 06:00N 50°36' W 096°54'0 0.0 170 / 61026.4 -16.0-17.3
2018-Feb-23 05:00N 50°36' W 096°54'0 0.0 170 / 31026.6 -16.0-17.3
2018-Feb-23 04:00N 50°36' W 096°54'0 0.0 190 / 51026.7 -15.3-16.6
2018-Feb-23 03:00N 50°36' W 096°54'0 0.0 200 / 61027.1 -14.2-15.8
2018-Feb-23 02:00N 50°36' W 096°54'0 0.0 190 / 101026.8 -13.2-15.1
2018-Feb-23 01:00N 50°36' W 096°54'0 0.0 190 / 91027.1 -12.4-14.8
2018-Feb-23 00:00N 50°36' W 096°54'0 0.0 190 / 111027.1 -11.6-15.1
2018-Feb-22 23:00N 50°36' W 096°54'0 0.0 190 / 121027.2 -10.5-15.2
2018-Feb-22 22:00N 50°36' W 096°54'0 0.0 190 / 151027.3 -10.5-15.3
2018-Feb-22 21:00N 50°36' W 096°54'0 0.0 190 / 131027.9 -10.4-15.6
2018-Feb-22 20:00N 50°36' W 096°54'0 0.0 190 / 161028.6 -11.1-16.2
2018-Feb-22 19:00N 50°36' W 096°54'0 0.0 190 / 161029.2 -11.7-17.1
2018-Feb-22 18:00N 50°36' W 096°54'0 0.0 190 / 171030.2 -12.7-18.0
2018-Feb-22 17:00N 50°36' W 096°54'0 0.0 200 / 141030.6 -13.8-19.0
2018-Feb-22 16:00N 50°36' W 096°54'0 0.0 200 / 121031.2 -14.9-19.6
2018-Feb-22 15:00N 50°36' W 096°54'0 0.0 190 / 71032.0 -17.6-20.7
2018-Feb-22 14:00N 50°36' W 096°54'0 0.0 190 / 91031.9 -19.0-21.8
2018-Feb-22 13:00N 50°36' W 096°54'0 0.0 190 / 81032.2 -21.7-24.2
2018-Feb-22 12:00N 50°36' W 096°54'0 0.0 170 / 91032.2 -21.7-24.3
2018-Feb-22 11:00N 50°36' W 096°54'0 0.0 170 / 71032.8 -20.2-22.9
2018-Feb-22 10:00N 50°36' W 096°54'0 0.0 180 / 51033.8 -18.9-22.0
2018-Feb-22 09:00N 50°36' W 096°54'0 0.0 190 / 91034.3 -19.5-22.5
2018-Feb-22 08:00N 50°36' W 096°54'0 0.0 180 / 51034.7 -21.8-24.7
2018-Feb-22 07:00N 50°36' W 096°54'0 0.0 210 / 71034.9 -20.8-23.7
2018-Feb-22 06:00N 50°36' W 096°54'0 0.0 210 / 61034.8 -20.2-23.7
2018-Feb-22 05:00N 50°36' W 096°54'0 0.0 180 / 61034.8 -20.2-23.9
2018-Feb-22 04:00N 50°36' W 096°54'0 0.0 190 / 51034.4 -18.8-23.3
2018-Feb-22 03:00N 50°36' W 096°54'0 0.0 200 / 51033.9 -17.4-21.8
2018-Feb-22 02:00N 50°36' W 096°54'0 0.0 220 / 51033.8 -16.8-20.3
2018-Feb-22 01:00N 50°36' W 096°54'0 0.0 190 / 71033.5 -16.2-20.5
2018-Feb-22 00:00N 50°36' W 096°54'0 0.0 190 / 81033.3 -15.0-20.5
2018-Feb-21 23:00N 50°36' W 096°54'0 0.0 240 / 61033.5 -12.6-21.8
2018-Feb-21 22:00N 50°36' W 096°54'0 0.0 220 / 101033.0 -13.0-23.5
2018-Feb-21 21:00N 50°36' W 096°54'0 0.0 240 / 91032.7 -12.7-23.1
2018-Feb-21 20:00N 50°36' W 096°54'0 0.0 230 / 101031.8 -13.3-24.2
2018-Feb-21 19:00N 50°36' W 096°54'0 0.0 220 / 101031.2 -13.9-24.3
2018-Feb-21 18:00N 50°36' W 096°54'0 0.0 260 / 71030.9 -14.3-23.6
2018-Feb-21 17:00N 50°36' W 096°54'0 0.0 260 / 101030.5 -14.9-23.2
2018-Feb-21 16:00N 50°36' W 096°54'0 0.0 240 / 101030.3 -16.2-22.1
2018-Feb-21 15:00N 50°36' W 096°54'0 0.0 220 / 91029.1 -17.1-21.4
2018-Feb-21 14:00N 50°36' W 096°54'0 0.0 230 / 51028.3 -17.4-20.2
2018-Feb-21 13:00N 50°36' W 096°54'0 0.0 240 / 51027.3 -17.0-19.6
2018-Feb-21 12:00N 50°36' W 096°54'0 0.0 260 / 61026.1 -17.2-19.8
2018-Feb-21 11:00N 50°36' W 096°54'0 0.0 260 / 91024.9 -17.0-20.1
2018-Feb-21 10:00N 50°36' W 096°54'0 0.0 250 / 81023.8 -16.3-19.9
2018-Feb-21 09:00N 50°36' W 096°54'0 0.0 230 / 51023.5 -17.5-20.8
2018-Feb-21 08:00N 50°36' W 096°54'0 0.0 230 / 71022.7 -16.5-20.0
2018-Feb-21 07:00N 50°36' W 096°54'0 0.0 230 / 61022.2 -15.8-19.6
2018-Feb-21 06:00N 50°36' W 096°54'0 0.0 240 / 71021.7 -15.4-19.5
2018-Feb-21 05:00N 50°36' W 096°54'0 0.0 220 / 61021.5 -15.8-19.8
2018-Feb-21 04:00N 50°36' W 096°54'0 0.0 200 / 61021.2 -15.8-19.6
2018-Feb-21 03:00N 50°36' W 096°54'0 0.0 190 / 71020.7 -15.8-19.5
2018-Feb-21 02:00N 50°36' W 096°54'0 0.0 200 / 51020.6 -14.6-19.7
2018-Feb-21 01:00N 50°36' W 096°54'0 0.0 190 / 61020.4 -13.9-20.1
2018-Feb-21 00:00N 50°36' W 096°54'0 0.0 220 / 51020.3 -13.0-19.8
2018-Feb-20 23:00N 50°36' W 096°54'0 0.0 220 / 61019.7 -11.3-19.0
2018-Feb-20 22:00N 50°36' W 096°54'0 0.0 120 / 81019.7 -12.9-16.0
2018-Feb-20 21:00N 50°36' W 096°54'0 0.0 130 / 71019.5 -13.1-15.9
2018-Feb-20 20:00N 50°36' W 096°54'0 0.0 120 / 51019.9 -12.9-16.1
2018-Feb-20 19:00N 50°36' W 096°54'0 0.0 230 / 31020.5 -12.6-17.5
2018-Feb-20 18:00N 50°36' W 096°54'0 0.0 250 / 31021.3 -13.8-17.8
2018-Feb-20 17:00N 50°36' W 096°54'0 0.0 240 / 31021.8 -15.4-18.4
2018-Feb-20 16:00N 50°36' W 096°54'0 0.0 230 / 21022.9 -15.9-18.3
2018-Feb-20 15:00N 50°36' W 096°54'0 0.0 200 / 21023.4 -16.8-18.9
2018-Feb-20 14:00N 50°36' W 096°54'0 0.0 210 / 21024.1 -17.3-19.5
2018-Feb-20 13:00N 50°36' W 096°54'0 0.0 280 / 21023.8 -17.3-19.7
2018-Feb-20 12:00N 50°36' W 096°54'0 0.0 290 / 11024.5 -17.1-20.4
2018-Feb-20 11:00N 50°36' W 096°54'0 0.0 1024.0 -16.4-20.4
2018-Feb-20 09:00N 50°36' W 096°54'0 0.0 110 / 21026.3 -16.3-21.5
2018-Feb-20 08:00N 50°36' W 096°54'0 0.0 110 / 31026.5 -16.6-21.9
2018-Feb-20 07:00N 50°36' W 096°54'0 0.0 1027.2 -17.8-23.7
2018-Feb-20 06:00N 50°36' W 096°54'0 0.0 180 / 11027.5 -18.1-24.8
2018-Feb-20 05:00N 50°36' W 096°54'0 0.0 210 / 21028.2 -18.2-24.1
2018-Feb-20 03:00N 50°36' W 096°54'0 0.0 250 / 41028.6 -18.1-25.9
2018-Feb-20 02:00N 50°36' W 096°54'0 0.0 210 / 21028.7 -18.9-24.7
2018-Feb-20 01:00N 50°36' W 096°54'0 0.0 230 / 21028.9 -18.7-24.9
2018-Feb-19 23:00N 50°36' W 096°54'0 0.0 040 / 11029.2 -18.6-23.7
2018-Feb-19 22:00N 50°36' W 096°54'0 0.0 080 / 11029.1 -17.6-23.6
2018-Feb-19 21:00N 50°36' W 096°54'0 0.0 010 / 61029.1 -18.3-23.9
2018-Feb-19 20:00N 50°36' W 096°54'0 0.0 020 / 11030.0 -17.5-24.4
2018-Feb-19 19:00N 50°36' W 096°54'0 0.0 050 / 41030.9 -19.2-25.1
2018-Feb-19 18:00N 50°36' W 096°54'0 0.0 040 / 41031.3 -20.4-26.0
2018-Feb-19 17:00N 50°36' W 096°54'0 0.0 040 / 41031.6 -21.5-27.4
2018-Feb-19 16:00N 50°36' W 096°54'0 0.0 360 / 31031.6 -22.4-28.5
2018-Feb-19 15:00N 50°36' W 096°54'0 0.0 360 / 21031.3 -24.6-29.6
2018-Feb-19 14:00N 50°36' W 096°54'0 0.0 330 / 51031.1 -25.9
2018-Feb-19 13:00N 50°36' W 096°54'0 0.0 350 / 41030.6 -25.9-29.8
2018-Feb-19 12:00N 50°36' W 096°54'0 0.0 320 / 41030.1 -25.7-29.8
2018-Feb-19 11:00N 50°36' W 096°54'0 0.0 330 / 51029.1 -25.2-29.0
2018-Feb-19 10:00N 50°36' W 096°54'0 0.0 320 / 61029.3 -24.0-28.1
2018-Feb-19 09:00N 50°36' W 096°54'0 0.0 320 / 71028.3 -23.2-27.5
2018-Feb-19 08:00N 50°36' W 096°54'0 0.0 320 / 51027.6 -22.4-27.3
2018-Feb-19 07:00N 50°36' W 096°54'0 0.0 320 / 71026.8 -21.7-26.7
2018-Feb-19 06:00N 50°36' W 096°54'0 0.0 340 / 61026.1 -20.3-25.7
2018-Feb-19 05:00N 50°36' W 096°54'0 0.0 330 / 81025.2 -20.1-25.8
2018-Feb-19 04:00N 50°36' W 096°54'0 0.0 340 / 71024.4 -19.2-24.8
2018-Feb-19 03:00N 50°36' W 096°54'0 0.0 340 / 61023.6 -16.9-23.5
2018-Feb-19 02:00N 50°36' W 096°54'0 0.0 340 / 61022.7 -16.5-22.8
2018-Feb-19 01:00N 50°36' W 096°54'0 0.0 340 / 51022.1 -15.8-22.5
2018-Feb-19 00:00N 50°36' W 096°54'0 0.0 360 / 41021.3 -15.2-22.0
2018-Feb-18 23:00N 50°36' W 096°54'0 0.0 360 / 71020.2 -14.1-19.9
2018-Feb-18 22:00N 50°36' W 096°54'0 0.0 020 / 71018.9 -13.8-18.1
2018-Feb-18 21:00N 50°36' W 096°54'0 0.0 010 / 81018.8 -13.8-18.1
2018-Feb-18 20:00N 50°36' W 096°54'0 0.0 010 / 91018.9 -14.6-18.3
2018-Feb-18 19:00N 50°36' W 096°54'0 0.0 010 / 81019.3 -15.1-18.9
2018-Feb-18 18:00N 50°36' W 096°54'0 0.0 360 / 71019.7 -17.0-20.4
2018-Feb-18 17:00N 50°36' W 096°54'0 0.0 360 / 51019.7 -17.9-21.1
2018-Feb-18 16:00N 50°36' W 096°54'0 0.0 010 / 51019.4 -18.0-21.0
2018-Feb-18 15:00N 50°36' W 096°54'0 0.0 010 / 51018.7 -17.9-20.7
2018-Feb-18 14:00N 50°36' W 096°54'0 0.0 030 / 41017.6 -18.4-21.0
2018-Feb-18 13:00N 50°36' W 096°54'0 0.0 360 / 61017.7 -18.9-21.4
2018-Feb-18 12:00N 50°36' W 096°54'0 0.0 330 / 11017.6 -18.6-20.9
2018-Feb-18 11:00N 50°36' W 096°54'0 0.0 350 / 31017.5 -18.7-21.1
2018-Feb-18 10:00N 50°36' W 096°54'0 0.0 260 / 31017.2 -17.7-20.6
2018-Feb-18 09:00N 50°36' W 096°54'0 0.0 260 / 61016.7 -16.9-20.6
2018-Feb-18 08:00N 50°36' W 096°54'0 0.0 250 / 61016.8 -16.8-21.0
2018-Feb-18 07:00N 50°36' W 096°54'0 0.0 250 / 51016.4 -16.0-21.2
2018-Feb-18 06:00N 50°36' W 096°54'0 0.0 210 / 61016.2 -15.8-21.3
2018-Feb-18 05:00N 50°36' W 096°54'0 0.0 230 / 51016.0 -15.5-21.8
2018-Feb-18 04:00N 50°36' W 096°54'0 0.0 220 / 61015.6 -15.0-22.0
2018-Feb-18 03:00N 50°36' W 096°54'0 0.0 210 / 71015.6 -15.2-22.3
2018-Feb-18 02:00N 50°36' W 096°54'0 0.0 200 / 61015.5 -15.4-23.0
2018-Feb-18 01:00N 50°36' W 096°54'0 0.0 190 / 41015.1 -14.8-23.1
2018-Feb-18 00:00N 50°36' W 096°54'0 0.0 260 / 11014.7 -13.4-22.7
2018-Feb-17 23:00N 50°36' W 096°54'0 0.0 300 / 61014.3 -12.1-22.4
2018-Feb-17 22:00N 50°36' W 096°54'0 0.0 290 / 101013.8 -11.9-22.1
2018-Feb-17 21:00N 50°36' W 096°54'0 0.0 300 / 111012.7 -13.1-20.9
2018-Feb-17 20:00N 50°36' W 096°54'0 0.0 310 / 121011.8 -12.0-20.3
2018-Feb-17 19:00N 50°36' W 096°54'0 0.0 310 / 121011.6 -10.6-19.7
2018-Feb-17 18:00N 50°36' W 096°54'0 0.0 290 / 131011.3 -10.2-19.7
2018-Feb-17 17:00N 50°36' W 096°54'0 0.0 250 / 71011.5 -12.0-19.2
2018-Feb-17 16:00N 50°36' W 096°54'0 0.0 250 / 61011.7 -14.0-19.0
2018-Feb-17 15:00N 50°36' W 096°54'0 0.0 260 / 51011.4 -15.9-19.6
2018-Feb-17 14:00N 50°36' W 096°54'0 0.0 270 / 51010.7 -16.5-19.7
2018-Feb-17 13:00N 50°36' W 096°54'0 0.0 280 / 61010.0 -16.7-18.6
2018-Feb-17 12:00N 50°36' W 096°54'0 0.0 280 / 61009.4 -16.7-18.8
2018-Feb-17 11:00N 50°36' W 096°54'0 0.0 250 / 61008.8 -16.2-19.0
2018-Feb-17 10:00N 50°36' W 096°54'0 0.0 260 / 71008.0 -15.7-18.1
2018-Feb-17 09:00N 50°36' W 096°54'0 0.0 280 / 51007.6 -14.8-17.2
2018-Feb-17 08:00N 50°36' W 096°54'0 0.0 280 / 61007.1 -14.4-16.9
2018-Feb-17 07:00N 50°36' W 096°54'0 0.0 290 / 71006.4 -13.4-16.5
2018-Feb-17 06:00N 50°36' W 096°54'0 0.0 280 / 61005.9 -12.5-16.1
2018-Feb-17 05:00N 50°36' W 096°54'0 0.0 270 / 61005.8 -11.1-14.9
2018-Feb-17 04:00N 50°36' W 096°54'0 0.0 210 / 41006.4 -11.8-13.4
2018-Feb-17 03:00N 50°36' W 096°54'0 0.0 200 / 51006.4 -11.0-13.0
2018-Feb-17 02:00N 50°36' W 096°54'0 0.0 170 / 31006.9 -11.5-13.2
2018-Feb-17 01:00N 50°36' W 096°54'0 0.0 170 / 71007.9 -11.1-13.4
2018-Feb-17 00:00N 50°36' W 096°54'0 0.0 170 / 101008.9 -11.0-13.5
2018-Feb-16 23:00N 50°36' W 096°54'0 0.0 160 / 71009.6 -12.3-15.5
2018-Feb-16 22:00N 50°36' W 096°54'0 0.0 190 / 121010.7 -10.6-15.5
2018-Feb-16 21:00N 50°36' W 096°54'0 0.0 190 / 141011.7 -12.1-16.7
2018-Feb-16 20:00N 50°36' W 096°54'0 0.0 190 / 131013.0 -13.1-18.0
2018-Feb-16 19:00N 50°36' W 096°54'0 0.0 190 / 101013.9 -13.5-19.5
2018-Feb-16 18:00N 50°36' W 096°54'0 0.0 180 / 81015.5 -14.1-20.1
2018-Feb-16 17:00N 50°36' W 096°54'0 0.0 220 / 71016.1 -14.7-20.7
2018-Feb-16 16:00N 50°36' W 096°54'0 0.0 220 / 61016.8 -16.3-21.1
2018-Feb-16 15:00N 50°36' W 096°54'0 0.0 230 / 91017.5 -17.6-21.8
2018-Feb-16 14:00N 50°36' W 096°54'0 0.0 230 / 91017.6 -18.6-22.3
2018-Feb-16 13:00N 50°36' W 096°54'0 0.0 230 / 81017.8 -18.8-22.3
2018-Feb-16 12:00N 50°36' W 096°54'0 0.0 230 / 81018.3 -18.3-21.9
2018-Feb-16 11:00N 50°36' W 096°54'0 0.0 230 / 81018.6 -18.2-22.2
2018-Feb-16 10:00N 50°36' W 096°54'0 0.0 230 / 101019.0 -17.9-22.5
2018-Feb-16 09:00N 50°36' W 096°54'0 0.0 230 / 111019.6 -18.5-23.1
2018-Feb-16 08:00N 50°36' W 096°54'0 0.0 230 / 111020.1 -19.2-24.2
2018-Feb-16 07:00N 50°36' W 096°54'0 0.0 220 / 111021.1 -20.0-25.1
2018-Feb-16 06:00N 50°36' W 096°54'0 0.0 210 / 91022.1 -20.5-25.7
2018-Feb-16 05:00N 50°36' W 096°54'0 0.0 220 / 91023.1 -21.3-26.4
2018-Feb-16 04:00N 50°36' W 096°54'0 0.0 220 / 91024.0 -22.3-27.4
2018-Feb-16 03:00N 50°36' W 096°54'0 0.0 220 / 71024.6 -23.4-28.6
2018-Feb-16 02:00N 50°36' W 096°54'0 0.0 210 / 61025.0 -23.4-29.5
2018-Feb-16 01:00N 50°36' W 096°54'0 0.0 210 / 61025.2 -22.4-29.5
2018-Feb-16 00:00N 50°36' W 096°54'0 0.0 230 / 61025.6 -21.3-29.2
2018-Feb-15 23:00N 50°36' W 096°54'   240 / 61025.7 -19.4-29.0

Dump ship's entire track history